createdAt,value
2023-04-09T00:00:25.538Z,25.34
2023-04-09T00:01:25.507Z,25.32
2023-04-09T00:02:25.520Z,25.30
2023-04-09T00:03:25.636Z,25.33
2023-04-09T00:04:25.550Z,25.34
2023-04-09T00:05:25.518Z,25.34
2023-04-09T00:06:25.580Z,25.33
2023-04-09T00:07:25.582Z,25.33
2023-04-09T00:08:25.602Z,25.32
2023-04-09T00:09:25.616Z,25.33
2023-04-09T00:10:25.670Z,25.34
2023-04-09T00:11:25.625Z,25.32
2023-04-09T00:12:25.698Z,25.32
2023-04-09T00:13:36.086Z,25.34
2023-04-09T00:14:26.677Z,25.33
2023-04-09T00:15:31.042Z,25.32
2023-04-09T00:16:26.765Z,25.32
2023-04-09T00:17:25.634Z,25.32
2023-04-09T00:18:25.743Z,25.32
2023-04-09T00:19:25.573Z,25.33
2023-04-09T00:20:25.578Z,25.30
2023-04-09T00:21:25.596Z,25.32
2023-04-09T00:22:25.653Z,25.32
2023-04-09T00:23:25.610Z,25.32
2023-04-09T00:24:25.651Z,25.32
2023-04-09T00:25:25.561Z,25.32
2023-04-09T00:26:25.581Z,25.33
2023-04-09T00:27:25.525Z,25.30
2023-04-09T00:28:25.595Z,25.29
2023-04-09T00:29:25.586Z,25.32
2023-04-09T00:30:25.647Z,25.30
2023-04-09T00:31:25.574Z,25.29
2023-04-09T00:32:25.588Z,25.30
2023-04-09T00:33:25.537Z,25.30
2023-04-09T00:34:25.561Z,25.30
2023-04-09T00:35:25.537Z,25.32
2023-04-09T00:36:27.024Z,25.30
2023-04-09T00:37:25.580Z,25.29
2023-04-09T00:38:25.631Z,25.32
2023-04-09T00:39:25.591Z,25.30
2023-04-09T00:40:25.592Z,25.30
2023-04-09T00:41:25.685Z,25.30
2023-04-09T00:42:25.682Z,25.33
2023-04-09T00:43:25.638Z,25.30
2023-04-09T00:44:25.685Z,25.30
2023-04-09T00:45:25.717Z,25.30
2023-04-09T00:46:25.726Z,25.33
2023-04-09T00:47:25.725Z,25.32
2023-04-09T00:48:25.754Z,25.33
2023-04-09T00:49:25.753Z,25.30
2023-04-09T00:50:25.773Z,25.32
2023-04-09T00:51:25.800Z,25.30
2023-04-09T00:52:25.774Z,25.29
2023-04-09T00:53:25.816Z,25.30
2023-04-09T00:54:25.855Z,25.29
2023-04-09T00:55:25.827Z,25.30
2023-04-09T00:56:25.880Z,25.29
2023-04-09T00:57:25.884Z,25.32
2023-04-09T00:58:25.879Z,25.30
2023-04-09T00:59:25.906Z,25.32
2023-04-09T01:00:25.936Z,25.32
2023-04-09T01:01:25.976Z,25.30
2023-04-09T01:02:26.136Z,25.30
2023-04-09T01:03:26.150Z,25.29
2023-04-09T01:04:26.088Z,25.30
2023-04-09T01:05:26.041Z,25.30
2023-04-09T01:06:26.044Z,25.32
2023-04-09T01:07:26.099Z,25.30
2023-04-09T01:08:26.116Z,25.30
2023-04-09T01:09:26.097Z,25.32
2023-04-09T01:10:26.120Z,25.32
2023-04-09T01:11:26.134Z,25.29
2023-04-09T01:12:26.151Z,25.29
2023-04-09T01:13:26.149Z,25.26
2023-04-09T01:14:26.221Z,25.30
2023-04-09T01:15:26.158Z,25.28
2023-04-09T01:16:26.285Z,25.30
2023-04-09T01:17:26.182Z,25.30
2023-04-09T01:18:26.220Z,25.30
2023-04-09T01:19:26.242Z,25.26
2023-04-09T01:20:26.296Z,25.28
2023-04-09T01:21:26.302Z,25.29
2023-04-09T01:22:26.355Z,25.28
2023-04-09T01:23:26.321Z,25.30
2023-04-09T01:24:26.328Z,25.29
2023-04-09T01:25:26.374Z,25.29
2023-04-09T01:26:26.338Z,25.29
2023-04-09T01:27:26.448Z,25.28
2023-04-09T01:28:26.400Z,25.28
2023-04-09T01:29:26.391Z,25.28
2023-04-09T01:30:26.425Z,25.30
2023-04-09T01:31:26.437Z,25.29
2023-04-09T01:32:26.510Z,25.29
2023-04-09T01:33:26.512Z,25.30
2023-04-09T01:34:26.464Z,25.30
2023-04-09T01:35:26.508Z,25.29
2023-04-09T01:36:26.516Z,25.26
2023-04-09T01:37:26.493Z,25.29
2023-04-09T01:38:26.570Z,25.29
2023-04-09T01:39:26.568Z,25.28
2023-04-09T01:40:26.575Z,25.29
2023-04-09T01:41:26.590Z,25.29
2023-04-09T01:42:26.597Z,25.30
2023-04-09T01:43:26.666Z,25.28
2023-04-09T01:44:26.646Z,25.28
2023-04-09T01:45:26.634Z,25.28
2023-04-09T01:46:26.727Z,25.28
2023-04-09T01:47:26.676Z,25.28
2023-04-09T01:48:26.665Z,25.29
2023-04-09T01:49:26.741Z,25.29
2023-04-09T01:50:26.740Z,25.29
2023-04-09T01:51:26.752Z,25.29
2023-04-09T01:52:26.768Z,25.29
2023-04-09T01:53:26.787Z,25.26
2023-04-09T01:54:26.850Z,25.28
2023-04-09T01:55:26.842Z,25.26
2023-04-09T01:56:26.832Z,25.29
2023-04-09T01:57:26.857Z,25.26
2023-04-09T01:58:26.869Z,25.26
2023-04-09T01:59:26.916Z,25.26
2023-04-09T02:00:26.926Z,25.28
2023-04-09T02:01:26.898Z,25.28
2023-04-09T02:02:27.013Z,25.25
2023-04-09T02:03:26.996Z,25.30
2023-04-09T02:04:26.964Z,25.26
2023-04-09T02:05:27.040Z,25.29
2023-04-09T02:06:27.113Z,25.26
2023-04-09T02:07:27.036Z,25.29
2023-04-09T02:08:27.059Z,25.25
2023-04-09T02:09:27.086Z,25.28
2023-04-09T02:10:27.054Z,25.25
2023-04-09T02:11:27.051Z,25.26
2023-04-09T02:12:27.095Z,25.26
2023-04-09T02:13:27.147Z,25.28
2023-04-09T02:14:27.117Z,25.26
2023-04-09T02:15:27.128Z,25.26
2023-04-09T02:16:27.190Z,25.26
2023-04-09T02:17:27.208Z,25.28
2023-04-09T02:18:27.274Z,25.26
2023-04-09T02:19:27.204Z,25.23
2023-04-09T02:20:27.193Z,25.26
2023-04-09T02:21:27.228Z,25.28
2023-04-09T02:22:27.274Z,25.28
2023-04-09T02:23:27.344Z,25.25
2023-04-09T02:24:27.342Z,25.28
2023-04-09T02:25:27.303Z,25.26
2023-04-09T02:26:27.300Z,25.26
2023-04-09T02:27:27.328Z,25.28
2023-04-09T02:28:27.373Z,25.26
2023-04-09T02:29:27.380Z,25.25
2023-04-09T02:30:27.386Z,25.25
2023-04-09T02:31:27.415Z,25.26
2023-04-09T02:32:27.425Z,25.26
2023-04-09T02:33:27.456Z,25.26
2023-04-09T02:34:27.459Z,25.26
2023-04-09T02:35:27.472Z,25.28
2023-04-09T02:36:27.477Z,25.23
2023-04-09T02:37:27.483Z,25.26
2023-04-09T02:38:27.479Z,25.25
2023-04-09T02:39:27.489Z,25.28
2023-04-09T02:40:27.531Z,25.26
2023-04-09T02:41:27.559Z,25.26
2023-04-09T02:42:27.583Z,25.25
2023-04-09T02:43:27.626Z,25.26
2023-04-09T02:44:27.655Z,25.25
2023-04-09T02:45:27.661Z,25.26
2023-04-09T02:46:27.720Z,25.28
2023-04-09T02:47:27.688Z,25.23
2023-04-09T02:48:27.706Z,25.28
2023-04-09T02:49:27.719Z,25.25
2023-04-09T02:50:29.326Z,25.25
2023-04-09T02:51:27.773Z,25.23
2023-04-09T02:52:27.791Z,25.23
2023-04-09T02:53:27.794Z,25.25
2023-04-09T02:54:27.804Z,25.25
2023-04-09T02:55:27.860Z,25.25
2023-04-09T02:56:27.865Z,25.26
2023-04-09T02:57:27.883Z,25.25
2023-04-09T02:58:27.909Z,25.23
2023-04-09T02:59:27.943Z,25.22
2023-04-09T03:00:27.948Z,25.25
2023-04-09T03:01:28.011Z,25.23
2023-04-09T03:02:28.146Z,25.25
2023-04-09T03:03:28.163Z,25.23
2023-04-09T03:04:28.031Z,25.22
2023-04-09T03:05:28.037Z,25.23
2023-04-09T03:06:28.143Z,25.22
2023-04-09T03:07:28.093Z,25.25
2023-04-09T03:08:28.102Z,25.25
2023-04-09T03:09:28.112Z,25.23
2023-04-09T03:10:28.153Z,25.26
2023-04-09T03:11:28.177Z,25.22
2023-04-09T03:12:28.180Z,25.23
2023-04-09T03:13:28.238Z,25.25
2023-04-09T03:14:28.199Z,25.23
2023-04-09T03:15:28.262Z,25.22
2023-04-09T03:16:28.263Z,25.23
2023-04-09T03:17:28.323Z,25.25
2023-04-09T03:18:28.322Z,25.20
2023-04-09T03:19:28.397Z,25.22
2023-04-09T03:20:28.340Z,25.23
2023-04-09T03:21:28.404Z,25.25
2023-04-09T03:22:28.405Z,25.25
2023-04-09T03:23:28.418Z,25.23
2023-04-09T03:24:28.420Z,25.20
2023-04-09T03:25:28.446Z,25.22
2023-04-09T03:26:28.495Z,25.20
2023-04-09T03:27:28.495Z,25.26
2023-04-09T03:28:28.490Z,25.20
2023-04-09T03:29:28.514Z,25.23
2023-04-09T03:30:28.548Z,25.20
2023-04-09T03:31:28.624Z,25.22
2023-04-09T03:32:28.637Z,25.25
2023-04-09T03:33:28.611Z,25.25
2023-04-09T03:34:28.686Z,25.23
2023-04-09T03:35:28.695Z,25.22
2023-04-09T03:36:28.702Z,25.26
2023-04-09T03:37:28.774Z,25.25
2023-04-09T03:38:28.818Z,25.25
2023-04-09T03:39:28.785Z,25.23
2023-04-09T03:40:28.842Z,25.20
2023-04-09T03:41:28.800Z,25.20
2023-04-09T03:42:28.852Z,25.22
2023-04-09T03:43:28.860Z,25.22
2023-04-09T03:44:28.915Z,25.22
2023-04-09T03:45:28.924Z,25.23
2023-04-09T03:46:29.015Z,25.22
2023-04-09T03:47:28.993Z,25.22
2023-04-09T03:48:28.995Z,25.22
2023-04-09T03:49:28.989Z,25.23
2023-04-09T03:50:29.062Z,25.22
2023-04-09T03:51:29.063Z,25.22
2023-04-09T03:52:29.070Z,25.20
2023-04-09T03:53:29.131Z,25.23
2023-04-09T03:54:29.131Z,25.23
2023-04-09T03:55:29.138Z,25.22
2023-04-09T03:56:29.145Z,25.22
2023-04-09T03:57:29.206Z,25.23
2023-04-09T03:58:29.205Z,25.22
2023-04-09T03:59:29.271Z,25.23
2023-04-09T04:00:29.310Z,25.20
2023-04-09T04:01:29.295Z,25.22
2023-04-09T04:02:29.347Z,25.20
2023-04-09T04:03:29.754Z,25.22
2023-04-09T04:04:29.480Z,25.22
2023-04-09T04:05:29.382Z,25.22
2023-04-09T04:06:29.420Z,25.19
2023-04-09T04:07:29.431Z,25.20
2023-04-09T04:08:29.438Z,25.20
2023-04-09T04:09:29.483Z,25.22
2023-04-09T04:10:29.487Z,25.19
2023-04-09T04:11:29.507Z,25.22
2023-04-09T04:12:29.567Z,25.22
2023-04-09T04:13:29.615Z,25.22
2023-04-09T04:14:29.623Z,25.20
2023-04-09T04:15:29.645Z,25.22
2023-04-09T04:16:29.679Z,25.20
2023-04-09T04:17:29.664Z,25.20
2023-04-09T04:18:29.718Z,25.20
2023-04-09T04:19:29.714Z,25.20
2023-04-09T04:20:29.721Z,25.20
2023-04-09T04:21:29.772Z,25.20
2023-04-09T04:22:29.781Z,25.20
2023-04-09T04:23:29.778Z,25.22
2023-04-09T04:24:29.789Z,25.20
2023-04-09T04:25:29.797Z,25.18
2023-04-09T04:26:29.801Z,25.22
2023-04-09T04:27:29.875Z,25.20
2023-04-09T04:28:29.876Z,25.19
2023-04-09T04:29:29.928Z,25.20
2023-04-09T04:30:29.928Z,25.20
2023-04-09T04:31:29.977Z,25.20
2023-04-09T04:32:29.956Z,25.20
2023-04-09T04:33:29.949Z,25.20
2023-04-09T04:34:30.025Z,25.20
2023-04-09T04:35:30.063Z,25.22
2023-04-09T04:36:30.035Z,25.20
2023-04-09T04:37:30.042Z,25.19
2023-04-09T04:38:30.097Z,25.20
2023-04-09T04:39:30.108Z,25.19
2023-04-09T04:40:30.115Z,25.20
2023-04-09T04:41:30.157Z,25.20
2023-04-09T04:42:30.115Z,25.19
2023-04-09T04:43:30.248Z,25.19
2023-04-09T04:44:30.191Z,25.20
2023-04-09T04:45:30.225Z,25.20
2023-04-09T04:46:30.271Z,25.20
2023-04-09T04:47:30.278Z,25.20
2023-04-09T04:48:30.257Z,25.20
2023-04-09T04:49:30.284Z,25.19
2023-04-09T04:50:30.377Z,25.22
2023-04-09T04:51:30.348Z,25.18
2023-04-09T04:52:30.350Z,25.18
2023-04-09T04:53:30.355Z,25.19
2023-04-09T04:54:30.409Z,25.19
2023-04-09T04:55:30.417Z,25.19
2023-04-09T04:56:30.461Z,25.20
2023-04-09T04:57:30.425Z,25.20
2023-04-09T04:58:30.501Z,25.19
2023-04-09T04:59:30.496Z,25.20
2023-04-09T05:00:30.500Z,25.20
2023-04-09T05:01:30.629Z,25.20
2023-04-09T05:02:30.572Z,25.19
2023-04-09T05:03:30.617Z,25.18
2023-04-09T05:04:30.579Z,25.20
2023-04-09T05:05:30.643Z,25.19
2023-04-09T05:06:30.645Z,25.18
2023-04-09T05:07:30.659Z,25.20
2023-04-09T05:08:30.670Z,25.20
2023-04-09T05:09:30.720Z,25.19
2023-04-09T05:10:30.712Z,25.18
2023-04-09T05:11:30.723Z,25.20
2023-04-09T05:12:30.795Z,25.20
2023-04-09T05:13:30.812Z,25.19
2023-04-09T05:14:30.796Z,25.20
2023-04-09T05:15:30.819Z,25.20
2023-04-09T05:16:30.891Z,25.18
2023-04-09T05:17:30.878Z,25.19
2023-04-09T05:18:30.868Z,25.19
2023-04-09T05:19:30.943Z,25.19
2023-04-09T05:20:30.943Z,25.18
2023-04-09T05:21:30.968Z,25.19
2023-04-09T05:22:30.957Z,25.19
2023-04-09T05:23:30.971Z,25.20
2023-04-09T05:24:31.022Z,25.18
2023-04-09T05:25:31.082Z,25.18
2023-04-09T05:26:31.038Z,25.19
2023-04-09T05:27:31.097Z,25.20
2023-04-09T05:28:31.139Z,25.20
2023-04-09T05:29:31.107Z,25.18
2023-04-09T05:30:31.146Z,25.19
2023-04-09T05:31:31.121Z,25.22
2023-04-09T05:32:31.207Z,25.19
2023-04-09T05:33:31.178Z,25.19
2023-04-09T05:34:31.189Z,25.19
2023-04-09T05:35:31.289Z,25.18
2023-04-09T05:36:31.272Z,25.19
2023-04-09T05:37:31.261Z,25.18
2023-04-09T05:38:31.287Z,25.19
2023-04-09T05:39:31.333Z,25.18
2023-04-09T05:40:31.333Z,25.18
2023-04-09T05:41:31.341Z,25.18
2023-04-09T05:42:31.412Z,25.16
2023-04-09T05:43:31.429Z,25.18
2023-04-09T05:44:31.426Z,25.18
2023-04-09T05:45:31.421Z,25.19
2023-04-09T05:46:31.606Z,25.18
2023-04-09T05:47:31.501Z,25.19
2023-04-09T05:48:31.489Z,25.20
2023-04-09T05:49:31.530Z,25.18
2023-04-09T05:50:34.412Z,25.18
2023-04-09T05:51:32.538Z,25.16
2023-04-09T05:52:31.523Z,25.18
2023-04-09T05:53:31.518Z,25.18
2023-04-09T05:54:31.496Z,25.19
2023-04-09T05:55:31.507Z,25.16
2023-04-09T05:56:31.549Z,25.20
2023-04-09T05:57:31.508Z,25.18
2023-04-09T05:58:31.451Z,25.18
2023-04-09T05:59:31.477Z,25.18
2023-04-09T06:00:31.472Z,25.19
2023-04-09T06:01:31.571Z,25.18
2023-04-09T06:02:31.494Z,25.18
2023-04-09T06:03:31.603Z,25.18
2023-04-09T06:04:31.474Z,25.18
2023-04-09T06:05:31.467Z,25.19
2023-04-09T06:06:31.480Z,25.19
2023-04-09T06:07:31.415Z,25.18
2023-04-09T06:08:31.420Z,25.19
2023-04-09T06:09:31.430Z,25.16
2023-04-09T06:10:31.449Z,25.18
2023-04-09T06:11:31.451Z,25.18
2023-04-09T06:12:31.519Z,25.20
2023-04-09T06:13:31.519Z,25.18
2023-04-09T06:14:31.526Z,25.18
2023-04-09T06:15:31.591Z,25.18
2023-04-09T06:16:31.575Z,25.19
2023-04-09T06:17:31.611Z,25.16
2023-04-09T06:18:31.603Z,25.16
2023-04-09T06:19:31.651Z,25.18
2023-04-09T06:20:31.690Z,25.16
2023-04-09T06:21:31.683Z,25.18
2023-04-09T06:22:31.680Z,25.18
2023-04-09T06:23:31.754Z,25.18
2023-04-09T06:24:31.747Z,25.15
2023-04-09T06:25:31.739Z,25.16
2023-04-09T06:26:31.830Z,25.18
2023-04-09T06:27:31.816Z,25.18
2023-04-09T06:28:31.827Z,25.18
2023-04-09T06:29:31.839Z,25.18
2023-04-09T06:30:31.983Z,25.18
2023-04-09T06:31:31.975Z,25.18
2023-04-09T06:32:35.513Z,25.18
2023-04-09T06:33:32.882Z,25.18
2023-04-09T06:34:31.899Z,25.19
2023-04-09T06:35:31.947Z,25.19
2023-04-09T06:36:31.869Z,25.18
2023-04-09T06:37:31.876Z,25.19
2023-04-09T06:38:31.880Z,25.18
2023-04-09T06:39:31.831Z,25.16
2023-04-09T06:40:31.846Z,25.18
2023-04-09T06:41:31.859Z,25.16
2023-04-09T06:42:31.807Z,25.16
2023-04-09T06:43:31.832Z,25.18
2023-04-09T06:44:31.830Z,25.19
2023-04-09T06:45:31.771Z,25.18
2023-04-09T06:46:31.801Z,25.16
2023-04-09T06:47:31.830Z,25.19
2023-04-09T06:48:31.786Z,25.18
2023-04-09T06:49:31.805Z,25.16
2023-04-09T06:50:31.764Z,25.18
2023-04-09T06:51:31.735Z,25.15
2023-04-09T06:52:31.785Z,25.18
2023-04-09T06:53:31.801Z,25.18
2023-04-09T06:54:31.838Z,25.18
2023-04-09T06:55:31.839Z,25.16
2023-04-09T06:56:31.852Z,25.18
2023-04-09T06:57:31.936Z,25.18
2023-04-09T06:58:31.890Z,25.16
2023-04-09T06:59:31.891Z,25.18
2023-04-09T07:00:31.968Z,25.19
2023-04-09T07:01:32.040Z,25.16
2023-04-09T07:02:32.220Z,25.18
2023-04-09T07:03:32.187Z,25.18
2023-04-09T07:04:32.083Z,25.18
2023-04-09T07:05:32.076Z,25.16
2023-04-09T07:06:32.076Z,25.16
2023-04-09T07:07:32.086Z,25.16
2023-04-09T07:08:32.148Z,25.18
2023-04-09T07:09:32.158Z,25.18
2023-04-09T07:10:32.222Z,25.19
2023-04-09T07:11:32.158Z,25.19
2023-04-09T07:12:32.235Z,25.19
2023-04-09T07:13:32.242Z,25.18
2023-04-09T07:14:32.246Z,25.15
2023-04-09T07:15:32.242Z,25.18
2023-04-09T07:16:32.353Z,25.19
2023-04-09T07:17:32.294Z,25.18
2023-04-09T07:18:32.306Z,25.16
2023-04-09T07:19:32.369Z,25.19
2023-04-09T07:20:32.378Z,25.19
2023-04-09T07:21:32.399Z,25.16
2023-04-09T07:22:32.423Z,25.20
2023-04-09T07:23:32.440Z,25.18
2023-04-09T07:24:32.460Z,25.20
2023-04-09T07:25:32.462Z,25.19
2023-04-09T07:26:32.526Z,25.18
2023-04-09T07:27:32.542Z,25.18
2023-04-09T07:28:32.555Z,25.18
2023-04-09T07:29:32.544Z,25.19
2023-04-09T07:30:32.591Z,25.16
2023-04-09T07:31:35.294Z,25.18
2023-04-09T07:32:32.670Z,25.18
2023-04-09T07:33:32.572Z,25.18
2023-04-09T07:34:32.580Z,25.19
2023-04-09T07:35:32.589Z,25.19
2023-04-09T07:36:32.655Z,25.18
2023-04-09T07:37:32.531Z,25.18
2023-04-09T07:38:32.540Z,25.16
2023-04-09T07:39:32.555Z,25.16
2023-04-09T07:40:32.518Z,25.22
2023-04-09T07:41:32.525Z,25.18
2023-04-09T07:42:32.535Z,25.18
2023-04-09T07:43:32.541Z,25.18
2023-04-09T07:44:32.473Z,25.19
2023-04-09T07:45:32.480Z,25.19
2023-04-09T07:46:32.525Z,25.19
2023-04-09T07:47:32.548Z,25.19
2023-04-09T07:48:32.431Z,25.19
2023-04-09T07:49:32.483Z,25.16
2023-04-09T07:50:32.635Z,25.20
2023-04-09T07:51:32.499Z,25.18
2023-04-09T07:52:32.431Z,25.19
2023-04-09T07:53:32.439Z,25.15
2023-04-09T07:54:32.464Z,25.16
2023-04-09T07:55:32.453Z,25.20
2023-04-09T07:56:32.425Z,25.18
2023-04-09T07:57:32.461Z,25.18
2023-04-09T07:58:32.434Z,25.19
2023-04-09T07:59:32.386Z,25.19
2023-04-09T08:00:32.389Z,25.18
2023-04-09T08:01:32.389Z,25.20
2023-04-09T08:02:32.514Z,25.18
2023-04-09T08:03:32.546Z,25.19
2023-04-09T08:04:32.519Z,25.18
2023-04-09T08:05:32.389Z,25.19
2023-04-09T08:06:32.333Z,25.16
2023-04-09T08:07:32.339Z,25.19
2023-04-09T08:08:32.347Z,25.19
2023-04-09T08:09:32.365Z,25.16
2023-04-09T08:10:32.280Z,25.18
2023-04-09T08:11:32.318Z,25.16
2023-04-09T08:12:32.329Z,25.16
2023-04-09T08:13:32.294Z,25.19
2023-04-09T08:14:32.291Z,25.19
2023-04-09T08:15:32.284Z,25.22
2023-04-09T08:16:32.365Z,25.19
2023-04-09T08:17:32.339Z,25.20
2023-04-09T08:18:32.268Z,25.19
2023-04-09T08:19:32.241Z,25.19
2023-04-09T08:20:32.285Z,25.19
2023-04-09T08:21:32.230Z,25.19
2023-04-09T08:22:32.222Z,25.20
2023-04-09T08:23:32.255Z,25.22
2023-04-09T08:24:32.254Z,25.22
2023-04-09T08:25:32.211Z,25.20
2023-04-09T08:26:32.225Z,25.23
2023-04-09T08:27:32.264Z,25.22
2023-04-09T08:28:32.151Z,25.20
2023-04-09T08:29:32.214Z,25.23
2023-04-09T08:30:32.194Z,25.22
2023-04-09T08:31:32.208Z,25.22
2023-04-09T08:32:32.197Z,25.22
2023-04-09T08:33:32.140Z,25.22
2023-04-09T08:34:32.153Z,25.20
2023-04-09T08:35:32.117Z,25.26
2023-04-09T08:36:32.185Z,25.22
2023-04-09T08:37:32.144Z,25.23
2023-04-09T08:38:32.129Z,25.25
2023-04-09T08:39:32.117Z,25.25
2023-04-09T08:40:32.123Z,25.26
2023-04-09T08:41:32.123Z,25.23
2023-04-09T08:42:32.111Z,25.26
2023-04-09T08:43:52.541Z,25.25
2023-04-09T08:44:33.109Z,25.26
2023-04-09T08:45:32.138Z,25.26
2023-04-09T08:46:32.048Z,25.29
2023-04-09T08:47:32.180Z,25.25
2023-04-09T08:48:32.149Z,25.26
2023-04-09T08:49:32.071Z,25.28
2023-04-09T08:50:32.036Z,25.28
2023-04-09T08:51:32.041Z,25.25
2023-04-09T08:52:32.023Z,25.28
2023-04-09T08:53:32.090Z,25.29
2023-04-09T08:54:32.079Z,25.28
2023-04-09T08:55:31.959Z,25.28
2023-04-09T08:56:32.034Z,25.29
2023-04-09T08:57:32.027Z,25.29
2023-04-09T08:58:31.958Z,25.29
2023-04-09T08:59:31.981Z,25.28
2023-04-09T09:00:31.978Z,25.28
2023-04-09T09:01:32.085Z,25.29
2023-04-09T09:02:32.017Z,25.28
2023-04-09T09:03:32.014Z,25.29
2023-04-09T09:04:31.987Z,25.29
2023-04-09T09:05:31.920Z,25.30
2023-04-09T09:06:31.945Z,25.29
2023-04-09T09:07:31.928Z,25.30
2023-04-09T09:08:31.927Z,25.30
2023-04-09T09:09:31.943Z,25.32
2023-04-09T09:10:31.945Z,25.30
2023-04-09T09:11:31.965Z,25.30
2023-04-09T09:12:31.978Z,25.30
2023-04-09T09:13:31.961Z,25.32
2023-04-09T09:14:31.971Z,25.33
2023-04-09T09:15:32.038Z,25.34
2023-04-09T09:16:32.048Z,25.34
2023-04-09T09:17:32.110Z,25.36
2023-04-09T09:18:32.064Z,25.36
2023-04-09T09:19:32.066Z,25.36
2023-04-09T09:20:31.996Z,25.36
2023-04-09T09:21:32.017Z,25.36
2023-04-09T09:22:32.078Z,25.39
2023-04-09T09:23:32.032Z,25.39
2023-04-09T09:24:32.038Z,25.41
2023-04-09T09:25:32.037Z,25.40
2023-04-09T09:26:32.084Z,25.40
2023-04-09T09:27:32.122Z,25.40
2023-04-09T09:28:32.165Z,25.40
2023-04-09T09:29:32.128Z,25.43
2023-04-09T09:30:32.116Z,25.40
2023-04-09T09:31:32.243Z,25.43
2023-04-09T09:32:32.117Z,25.41
2023-04-09T09:33:32.095Z,25.43
2023-04-09T09:34:32.109Z,25.43
2023-04-09T09:35:32.129Z,25.43
2023-04-09T09:36:32.140Z,25.44
2023-04-09T09:37:32.143Z,25.44
2023-04-09T09:38:32.130Z,25.44
2023-04-09T09:39:32.097Z,25.44
2023-04-09T09:40:32.141Z,25.47
2023-04-09T09:41:32.130Z,25.49
2023-04-09T09:42:32.174Z,25.47
2023-04-09T09:43:32.139Z,25.47
2023-04-09T09:44:32.167Z,25.50
2023-04-09T09:45:32.498Z,25.50
2023-04-09T09:46:32.161Z,25.50
2023-04-09T09:47:32.217Z,25.51
2023-04-09T09:48:32.179Z,25.50
2023-04-09T09:49:32.133Z,25.53
2023-04-09T09:50:32.184Z,25.53
2023-04-09T09:51:32.159Z,25.56
2023-04-09T09:52:32.129Z,25.53
2023-04-09T09:53:32.147Z,25.54
2023-04-09T09:54:32.109Z,25.56
2023-04-09T09:55:32.102Z,25.53
2023-04-09T09:56:32.194Z,25.57
2023-04-09T09:57:32.200Z,25.56
2023-04-09T09:58:32.151Z,25.56
2023-04-09T09:59:32.216Z,25.57
2023-04-09T10:00:32.103Z,25.56
2023-04-09T10:01:32.255Z,25.59
2023-04-09T10:02:32.150Z,25.59
2023-04-09T10:03:32.205Z,25.57
2023-04-09T10:04:32.226Z,25.57
2023-04-09T10:05:32.128Z,25.60
2023-04-09T10:06:32.132Z,25.57
2023-04-09T10:07:32.161Z,25.60
2023-04-09T10:08:32.127Z,25.61
2023-04-09T10:09:32.141Z,25.61
2023-04-09T10:10:32.135Z,25.63
2023-04-09T10:11:32.186Z,25.59
2023-04-09T10:12:32.247Z,25.61
2023-04-09T10:13:32.232Z,25.60
2023-04-09T10:14:32.195Z,25.64
2023-04-09T10:15:32.366Z,25.64
2023-04-09T10:16:32.286Z,25.64
2023-04-09T10:17:32.409Z,25.63
2023-04-09T10:18:32.274Z,25.66
2023-04-09T10:19:32.267Z,25.64
2023-04-09T10:20:32.282Z,25.63
2023-04-09T10:21:32.412Z,25.67
2023-04-09T10:22:32.297Z,25.66
2023-04-09T10:23:32.333Z,25.69
2023-04-09T10:24:32.327Z,25.70
2023-04-09T10:25:32.330Z,25.69
2023-04-09T10:26:32.339Z,25.67
2023-04-09T10:27:32.388Z,25.69
2023-04-09T10:28:32.392Z,25.69
2023-04-09T10:29:32.567Z,25.71
2023-04-09T10:30:32.454Z,25.71
2023-04-09T10:31:32.518Z,25.70
2023-04-09T10:32:32.685Z,25.67
2023-04-09T10:33:32.630Z,25.70
2023-04-09T10:34:32.644Z,25.71
2023-04-09T10:35:32.694Z,25.70
2023-04-09T10:36:32.717Z,25.71
2023-04-09T10:37:32.724Z,25.73
2023-04-09T10:38:32.759Z,25.73
2023-04-09T10:39:32.758Z,25.73
2023-04-09T10:40:32.834Z,25.71
2023-04-09T10:41:32.871Z,25.71
2023-04-09T10:42:32.993Z,25.71
2023-04-09T10:43:32.855Z,25.74
2023-04-09T10:44:32.873Z,25.74
2023-04-09T10:45:32.920Z,25.74
2023-04-09T10:46:32.941Z,25.74
2023-04-09T10:47:33.100Z,25.73
2023-04-09T10:48:33.033Z,25.71
2023-04-09T10:49:33.023Z,25.73
2023-04-09T10:50:33.095Z,25.73
2023-04-09T10:51:33.128Z,25.73
2023-04-09T10:52:33.265Z,25.74
2023-04-09T10:53:33.281Z,25.74
2023-04-09T10:54:33.373Z,25.74
2023-04-09T10:55:33.352Z,25.74
2023-04-09T10:56:33.394Z,25.76
2023-04-09T10:57:33.452Z,25.77
2023-04-09T10:58:33.519Z,25.77
2023-04-09T10:59:33.515Z,25.78
2023-04-09T11:00:33.594Z,25.80
2023-04-09T11:01:33.691Z,25.80
2023-04-09T11:02:33.866Z,25.80
2023-04-09T11:03:33.870Z,25.81
2023-04-09T11:04:33.869Z,25.80
2023-04-09T11:05:33.884Z,25.80
2023-04-09T11:06:33.943Z,25.80
2023-04-09T11:07:33.988Z,25.78
2023-04-09T11:08:34.155Z,25.80
2023-04-09T11:09:34.058Z,25.80
2023-04-09T11:10:34.116Z,25.83
2023-04-09T11:11:34.179Z,25.83
2023-04-09T11:12:34.224Z,25.80
2023-04-09T11:13:34.617Z,25.81
2023-04-09T11:14:34.410Z,25.83
2023-04-09T11:15:34.421Z,25.83
2023-04-09T11:16:34.422Z,25.78
2023-04-09T11:17:34.511Z,25.83
2023-04-09T11:18:34.574Z,25.83
2023-04-09T11:19:34.557Z,25.80
2023-04-09T11:20:34.584Z,25.81
2023-04-09T11:21:35.829Z,25.84
2023-04-09T11:22:34.677Z,25.85
2023-04-09T11:23:34.735Z,25.83
2023-04-09T11:24:34.782Z,25.83
2023-04-09T11:25:34.769Z,25.84
2023-04-09T11:26:34.832Z,25.84
2023-04-09T11:27:34.896Z,25.83
2023-04-09T11:28:34.906Z,25.84
2023-04-09T11:29:34.960Z,25.83
2023-04-09T11:30:34.972Z,25.84
2023-04-09T11:31:35.079Z,25.81
2023-04-09T11:32:35.117Z,25.88
2023-04-09T11:33:35.149Z,25.85
2023-04-09T11:34:35.131Z,25.84
2023-04-09T11:35:35.258Z,25.87
2023-04-09T11:36:35.273Z,25.88
2023-04-09T11:37:35.335Z,25.88
2023-04-09T11:38:35.389Z,25.90
2023-04-09T11:39:35.431Z,25.88
2023-04-09T11:40:35.509Z,25.91
2023-04-09T11:41:35.604Z,25.90
2023-04-09T11:42:35.626Z,25.91
2023-04-09T11:43:35.725Z,25.92
2023-04-09T11:44:35.775Z,25.91
2023-04-09T11:45:35.840Z,25.92
2023-04-09T11:46:35.927Z,25.92
2023-04-09T11:47:35.997Z,25.92
2023-04-09T11:48:36.008Z,25.95
2023-04-09T11:49:36.077Z,25.95
2023-04-09T11:50:36.108Z,25.95
2023-04-09T11:51:36.184Z,25.95
2023-04-09T11:52:36.239Z,25.95
2023-04-09T11:53:36.315Z,25.94
2023-04-09T11:54:36.347Z,25.92
2023-04-09T11:55:36.439Z,25.94
2023-04-09T11:56:36.460Z,25.94
2023-04-09T11:57:36.470Z,25.95
2023-04-09T11:58:36.558Z,25.92
2023-04-09T11:59:36.594Z,25.95
2023-04-09T12:00:36.666Z,25.92
2023-04-09T12:01:36.748Z,25.95
2023-04-09T12:02:36.954Z,25.95
2023-04-09T12:03:36.925Z,25.95
2023-04-09T12:04:37.012Z,25.95
2023-04-09T12:05:39.193Z,25.95
2023-04-09T12:06:36.952Z,25.94
2023-04-09T12:07:37.015Z,25.94
2023-04-09T12:08:36.969Z,25.94
2023-04-09T12:09:36.938Z,25.91
2023-04-09T12:10:36.938Z,25.94
2023-04-09T12:11:36.952Z,25.94
2023-04-09T12:12:36.957Z,25.92
2023-04-09T12:13:36.885Z,25.94
2023-04-09T12:14:36.896Z,25.92
2023-04-09T12:15:36.964Z,25.94
2023-04-09T12:16:36.907Z,25.95
2023-04-09T12:17:36.945Z,25.95
2023-04-09T12:18:36.879Z,25.94
2023-04-09T12:19:36.897Z,25.95
2023-04-09T12:20:36.841Z,25.92
2023-04-09T12:21:36.856Z,25.97
2023-04-09T12:22:36.851Z,25.94
2023-04-09T12:23:36.856Z,25.97
2023-04-09T12:24:36.823Z,25.97
2023-04-09T12:25:36.886Z,25.97
2023-04-09T12:26:36.841Z,25.97
2023-04-09T12:27:36.904Z,25.98
2023-04-09T12:28:36.973Z,26.00
2023-04-09T12:29:37.009Z,25.97
2023-04-09T12:30:37.064Z,25.98
2023-04-09T12:31:37.155Z,26.00
2023-04-09T12:32:37.236Z,25.98
2023-04-09T12:33:37.232Z,26.00
2023-04-09T12:34:37.304Z,25.98
2023-04-09T12:35:37.435Z,26.00
2023-04-09T12:36:37.470Z,26.00
2023-04-09T12:37:37.551Z,26.00
2023-04-09T12:38:37.583Z,26.01
2023-04-09T12:39:37.639Z,26.00
2023-04-09T12:40:37.700Z,26.01
2023-04-09T12:41:37.768Z,25.98
2023-04-09T12:42:37.798Z,25.98
2023-04-09T12:43:37.879Z,25.98
2023-04-09T12:44:37.926Z,26.00
2023-04-09T12:45:38.026Z,25.98
2023-04-09T12:46:38.101Z,25.98
2023-04-09T12:47:38.164Z,26.00
2023-04-09T12:48:38.151Z,26.01
2023-04-09T12:49:39.096Z,26.04
2023-04-09T12:50:38.323Z,26.04
2023-04-09T12:51:38.336Z,26.07
2023-04-09T12:52:38.459Z,26.07